sensor_id;sensor_type;location;lat;lon;timestamp;pressure;altitude;pressure_sealevel;temperature;humidity
11523;BME280;40093;43.224;27.910;2022-12-07T00:01:47;100672.34;;;11.25;100.00
11523;BME280;40093;43.224;27.910;2022-12-07T00:04:16;100679.31;;;11.16;100.00
11523;BME280;40093;43.224;27.910;2022-12-07T00:06:46;100683.06;;;11.01;100.00
11523;BME280;40093;43.224;27.910;2022-12-07T00:09:14;100688.34;;;10.83;100.00
11523;BME280;40093;43.224;27.910;2022-12-07T00:11:42;100679.97;;;10.76;100.00
11523;BME280;40093;43.224;27.910;2022-12-07T00:14:12;100681.50;;;10.70;100.00
11523;BME280;40093;43.224;27.910;2022-12-07T00:16:39;100687.00;;;10.70;100.00
11523;BME280;40093;43.224;27.910;2022-12-07T00:19:06;100686.66;;;10.75;100.00
11523;BME280;40093;43.224;27.910;2022-12-07T00:21:35;100688.25;;;10.76;100.00
11523;BME280;40093;43.224;27.910;2022-12-07T00:24:03;100696.09;;;10.74;100.00
11523;BME280;40093;43.224;27.910;2022-12-07T00:26:33;100697.88;;;10.63;100.00
11523;BME280;40093;43.224;27.910;2022-12-07T00:29:02;100690.63;;;10.52;100.00
11523;BME280;40093;43.224;27.910;2022-12-07T00:31:32;100686.69;;;10.49;100.00
11523;BME280;40093;43.224;27.910;2022-12-07T00:34:00;100696.25;;;10.59;100.00
11523;BME280;40093;43.224;27.910;2022-12-07T00:36:27;100703.34;;;10.60;100.00
11523;BME280;40093;43.224;27.910;2022-12-07T00:38:57;100694.31;;;10.63;100.00
11523;BME280;40093;43.224;27.910;2022-12-07T00:41:26;100688.28;;;10.50;100.00
11523;BME280;40093;43.224;27.910;2022-12-07T00:43:53;100694.66;;;10.58;100.00
11523;BME280;40093;43.224;27.910;2022-12-07T00:46:20;100686.34;;;10.54;100.00
11523;BME280;40093;43.224;27.910;2022-12-07T00:48:48;100689.16;;;10.58;100.00
11523;BME280;40093;43.224;27.910;2022-12-07T00:51:18;100689.22;;;10.61;100.00
11523;BME280;40093;43.224;27.910;2022-12-07T00:53:45;100685.25;;;10.59;100.00
11523;BME280;40093;43.224;27.910;2022-12-07T00:56:16;100668.38;;;10.60;100.00
11523;BME280;40093;43.224;27.910;2022-12-07T00:58:43;100682.69;;;10.73;100.00
11523;BME280;40093;43.224;27.910;2022-12-07T01:01:12;100680.72;;;10.73;100.00
11523;BME280;40093;43.224;27.910;2022-12-07T01:03:39;100680.53;;;10.59;100.00
11523;BME280;40093;43.224;27.910;2022-12-07T01:06:06;100684.81;;;10.57;100.00
11523;BME280;40093;43.224;27.910;2022-12-07T01:08:33;100666.03;;;10.62;100.00
11523;BME280;40093;43.224;27.910;2022-12-07T01:11:02;100666.56;;;10.71;100.00
11523;BME280;40093;43.224;27.910;2022-12-07T01:13:31;100664.13;;;10.66;100.00
11523;BME280;40093;43.224;27.910;2022-12-07T01:15:59;100671.47;;;10.59;100.00
11523;BME280;40093;43.224;27.910;2022-12-07T01:18:27;100666.44;;;10.64;100.00
11523;BME280;40093;43.224;27.910;2022-12-07T01:21:00;100645.44;;;10.53;100.00
11523;BME280;40093;43.224;27.910;2022-12-07T01:23:28;100646.66;;;10.55;100.00
11523;BME280;40093;43.224;27.910;2022-12-07T01:25:56;100644.13;;;10.43;100.00
11523;BME280;40093;43.224;27.910;2022-12-07T01:28:23;100647.63;;;10.40;100.00
11523;BME280;40093;43.224;27.910;2022-12-07T01:31:00;100646.53;;;10.45;100.00
11523;BME280;40093;43.224;27.910;2022-12-07T01:33:28;100644.19;;;10.47;100.00
11523;BME280;40093;43.224;27.910;2022-12-07T01:36:00;100646.66;;;10.55;100.00
11523;BME280;40093;43.224;27.910;2022-12-07T01:38:28;100640.84;;;10.60;100.00
11523;BME280;40093;43.224;27.910;2022-12-07T01:40:55;100632.31;;;10.69;100.00
11523;BME280;40093;43.224;27.910;2022-12-07T01:43:26;100634.69;;;10.70;100.00
11523;BME280;40093;43.224;27.910;2022-12-07T01:45:53;100628.66;;;10.61;100.00
11523;BME280;40093;43.224;27.910;2022-12-07T01:48:24;100630.25;;;10.62;100.00
11523;BME280;40093;43.224;27.910;2022-12-07T01:50:53;100620.50;;;10.68;100.00
11523;BME280;40093;43.224;27.910;2022-12-07T01:53:24;100619.78;;;10.75;100.00
11523;BME280;40093;43.224;27.910;2022-12-07T01:55:53;100622.59;;;10.78;100.00
11523;BME280;40093;43.224;27.910;2022-12-07T01:58:22;100619.44;;;10.76;100.00
11523;BME280;40093;43.224;27.910;2022-12-07T02:00:49;100621.59;;;10.64;100.00
11523;BME280;40093;43.224;27.910;2022-12-07T02:03:19;100622.75;;;10.59;100.00
11523;BME280;40093;43.224;27.910;2022-12-07T02:05:50;100617.25;;;10.59;100.00
11523;BME280;40093;43.224;27.910;2022-12-07T02:08:18;100611.31;;;10.57;100.00
11523;BME280;40093;43.224;27.910;2022-12-07T02:10:45;100604.91;;;10.50;100.00
11523;BME280;40093;43.224;27.910;2022-12-07T02:13:15;100615.31;;;10.63;100.00
11523;BME280;40093;43.224;27.910;2022-12-07T02:16:03;100619.25;;;10.62;100.00
11523;BME280;40093;43.224;27.910;2022-12-07T02:18:44;100622.38;;;10.61;100.00
11523;BME280;40093;43.224;27.910;2022-12-07T02:21:21;100623.16;;;10.61;100.00
11523;BME280;40093;43.224;27.910;2022-12-07T02:24:12;100616.56;;;10.66;100.00
11523;BME280;40093;43.224;27.910;2022-12-07T02:27:13;100619.66;;;10.64;100.00
11523;BME280;40093;43.224;27.910;2022-12-07T02:29:58;100614.44;;;10.56;100.00
11523;BME280;40093;43.224;27.910;2022-12-07T02:32:31;100609.66;;;10.49;100.00
11523;BME280;40093;43.224;27.910;2022-12-07T02:35:06;100620.19;;;10.47;100.00
11523;BME280;40093;43.224;27.910;2022-12-07T02:37:37;100619.38;;;10.43;100.00
11523;BME280;40093;43.224;27.910;2022-12-07T02:40:11;100622.47;;;10.38;100.00
11523;BME280;40093;43.224;27.910;2022-12-07T02:42:43;100618.53;;;10.39;100.00
11523;BME280;40093;43.224;27.910;2022-12-07T02:45:15;100612.59;;;10.37;100.00
11523;BME280;40093;43.224;27.910;2022-12-07T02:47:45;100609.13;;;10.14;100.00
11523;BME280;40093;43.224;27.910;2022-12-07T02:50:15;100625.66;;;10.18;100.00
11523;BME280;40093;43.224;27.910;2022-12-07T02:52:44;100629.53;;;10.13;100.00
11523;BME280;40093;43.224;27.910;2022-12-07T02:55:11;100618.16;;;10.15;100.00
11523;BME280;40093;43.224;27.910;2022-12-07T02:57:49;100609.97;;;10.18;100.00
11523;BME280;40093;43.224;27.910;2022-12-07T03:00:21;100616.38;;;10.26;100.00
11523;BME280;40093;43.224;27.910;2022-12-07T03:02:53;100622.75;;;10.33;100.00
11523;BME280;40093;43.224;27.910;2022-12-07T03:05:50;100615.72;;;10.36;100.00
11523;BME280;40093;43.224;27.910;2022-12-07T03:08:24;100615.41;;;10.41;100.00
11523;BME280;40093;43.224;27.910;2022-12-07T03:10:57;100604.56;;;10.25;100.00
11523;BME280;40093;43.224;27.910;2022-12-07T03:13:29;100610.94;;;10.29;100.00
11523;BME280;40093;43.224;27.910;2022-12-07T03:16:04;100602.56;;;10.22;100.00
11523;BME280;40093;43.224;27.910;2022-12-07T03:18:37;100599.75;;;10.19;100.00
11523;BME280;40093;43.224;27.910;2022-12-07T03:21:09;100603.78;;;10.25;100.00
11523;BME280;40093;43.224;27.910;2022-12-07T03:23:40;100602.25;;;10.27;100.00
11523;BME280;40093;43.224;27.910;2022-12-07T03:26:11;100609.69;;;10.27;100.00
11523;BME280;40093;43.224;27.910;2022-12-07T03:28:42;100600.63;;;10.23;100.00
11523;BME280;40093;43.224;27.910;2022-12-07T03:31:17;100606.97;;;10.27;100.00
11523;BME280;40093;43.224;27.910;2022-12-07T03:33:52;100600.63;;;10.23;100.00
11523;BME280;40093;43.224;27.910;2022-12-07T03:36:25;100596.75;;;10.27;100.00
11523;BME280;40093;43.224;27.910;2022-12-07T03:38:58;100602.25;;;10.27;100.00
11523;BME280;40093;43.224;27.910;2022-12-07T03:41:31;100593.19;;;10.27;100.00
11523;BME280;40093;43.224;27.910;2022-12-07T03:44:00;100587.75;;;10.30;100.00
11523;BME280;40093;43.224;27.910;2022-12-07T03:46:36;100587.38;;;10.32;100.00
11523;BME280;40093;43.224;27.910;2022-12-07T03:49:09;100596.91;;;10.38;100.00
11523;BME280;40093;43.224;27.910;2022-12-07T03:51:43;100593.72;;;10.36;100.00
11523;BME280;40093;43.224;27.910;2022-12-07T03:54:16;100578.69;;;10.30;100.00
11523;BME280;40093;43.224;27.910;2022-12-07T03:56:46;100594.47;;;10.33;100.00
11523;BME280;40093;43.224;27.910;2022-12-07T03:59:14;100599.22;;;10.36;100.00
11523;BME280;40093;43.224;27.910;2022-12-07T04:01:50;100591.34;;;10.34;100.00
11523;BME280;40093;43.224;27.910;2022-12-07T04:04:20;100602.75;;;10.36;100.00
11523;BME280;40093;43.224;27.910;2022-12-07T04:06:47;100605.97;;;10.38;100.00
11523;BME280;40093;43.224;27.910;2022-12-07T04:09:14;100600.81;;;10.37;100.00
11523;BME280;40093;43.224;27.910;2022-12-07T04:11:41;100592.50;;;10.33;100.00
11523;BME280;40093;43.224;27.910;2022-12-07T04:14:08;100591.69;;;10.29;100.00
11523;BME280;40093;43.224;27.910;2022-12-07T04:16:55;100596.44;;;10.32;100.00
11523;BME280;40093;43.224;27.910;2022-12-07T04:19:24;100598.34;;;10.28;100.00
11523;BME280;40093;43.224;27.910;2022-12-07T04:21:51;100592.41;;;10.26;100.00
11523;BME280;40093;43.224;27.910;2022-12-07T04:24:18;100587.28;;;10.25;100.00
11523;BME280;40093;43.224;27.910;2022-12-07T04:26:46;100578.50;;;10.16;100.00
11523;BME280;40093;43.224;27.910;2022-12-07T04:29:14;100590.66;;;10.15;100.00
11523;BME280;40093;43.224;27.910;2022-12-07T04:31:42;100576.88;;;10.11;100.00
11523;BME280;40093;43.224;27.910;2022-12-07T04:34:11;100580.31;;;10.05;100.00
11523;BME280;40093;43.224;27.910;2022-12-07T04:36:39;100579.50;;;10.04;100.00
11523;BME280;40093;43.224;27.910;2022-12-07T04:39:09;100583.13;;;10.08;100.00
11523;BME280;40093;43.224;27.910;2022-12-07T04:41:40;100586.69;;;10.12;100.00
11523;BME280;40093;43.224;27.910;2022-12-07T04:44:06;100579.69;;;10.15;100.00
11523;BME280;40093;43.224;27.910;2022-12-07T04:46:33;100591.91;;;10.17;100.00
11523;BME280;40093;43.224;27.910;2022-12-07T04:49:01;100571.31;;;10.08;100.00
11523;BME280;40093;43.224;27.910;2022-12-07T04:51:32;100589.16;;;10.17;100.00
11523;BME280;40093;43.224;27.910;2022-12-07T04:53:59;100589.50;;;10.16;100.00
11523;BME280;40093;43.224;27.910;2022-12-07T04:56:26;100596.53;;;10.13;100.00
11523;BME280;40093;43.224;27.910;2022-12-07T04:58:54;100597.63;;;10.09;100.00
11523;BME280;40093;43.224;27.910;2022-12-07T05:01:22;100579.69;;;9.92;100.00
11523;BME280;40093;43.224;27.910;2022-12-07T05:03:50;100598.50;;;9.90;100.00
11523;BME280;40093;43.224;27.910;2022-12-07T05:06:17;100596.19;;;9.92;100.00
11523;BME280;40093;43.224;27.910;2022-12-07T05:08:46;100596.19;;;9.92;100.00
11523;BME280;40093;43.224;27.910;2022-12-07T05:11:13;100596.09;;;9.85;100.00
11523;BME280;40093;43.224;27.910;2022-12-07T05:14:01;100594.03;;;9.82;100.00
11523;BME280;40093;43.224;27.910;2022-12-07T05:16:29;100592.03;;;9.79;100.00
11523;BME280;40093;43.224;27.910;2022-12-07T05:18:56;100591.56;;;9.74;100.00
11523;BME280;40093;43.224;27.910;2022-12-07T05:21:23;100603.22;;;9.68;100.00
11523;BME280;40093;43.224;27.910;2022-12-07T05:23:52;100600.06;;;9.66;100.00
11523;BME280;40093;43.224;27.910;2022-12-07T05:26:18;100589.25;;;9.54;100.00
11523;BME280;40093;43.224;27.910;2022-12-07T05:28:50;100602.56;;;9.52;100.00
11523;BME280;40093;43.224;27.910;2022-12-07T05:31:17;100605.47;;;9.40;100.00
11523;BME280;40093;43.224;27.910;2022-12-07T05:33:43;100596.06;;;9.41;100.00
11523;BME280;40093;43.224;27.910;2022-12-07T05:36:10;100599.00;;;9.29;100.00
11523;BME280;40093;43.224;27.910;2022-12-07T05:38:37;100597.34;;;9.24;100.00
11523;BME280;40093;43.224;27.910;2022-12-07T05:41:06;100598.16;;;9.25;100.00
11523;BME280;40093;43.224;27.910;2022-12-07T05:43:54;100604.31;;;9.41;100.00
11523;BME280;40093;43.224;27.910;2022-12-07T05:46:21;100602.72;;;9.40;100.00
11523;BME280;40093;43.224;27.910;2022-12-07T05:48:48;100605.78;;;9.35;100.00
11523;BME280;40093;43.224;27.910;2022-12-07T05:51:15;100597.06;;;9.29;100.00
11523;BME280;40093;43.224;27.910;2022-12-07T05:53:42;100594.81;;;9.35;100.00
11523;BME280;40093;43.224;27.910;2022-12-07T05:56:10;100590.72;;;9.48;100.00
11523;BME280;40093;43.224;27.910;2022-12-07T05:58:38;100602.69;;;9.59;100.00
11523;BME280;40093;43.224;27.910;2022-12-07T06:01:22;100570.31;;;9.49;100.00
11523;BME280;40093;43.224;27.910;2022-12-07T06:03:49;100588.47;;;9.53;100.00
11523;BME280;40093;43.224;27.910;2022-12-07T06:06:17;100597.94;;;9.56;100.00
11523;BME280;40093;43.224;27.910;2022-12-07T06:08:44;100600.78;;;9.63;100.00
11523;BME280;40093;43.224;27.910;2022-12-07T06:11:12;100595.00;;;9.68;100.00
11523;BME280;40093;43.224;27.910;2022-12-07T06:13:57;100597.41;;;9.73;100.00
11523;BME280;40093;43.224;27.910;2022-12-07T06:16:24;100600.72;;;9.81;100.00
11523;BME280;40093;43.224;27.910;2022-12-07T06:18:51;100602.97;;;9.76;100.00
11523;BME280;40093;43.224;27.910;2022-12-07T06:21:18;100583.06;;;9.82;100.00
11523;BME280;40093;43.224;27.910;2022-12-07T06:23:45;100606.69;;;10.09;100.00
11523;BME280;40093;43.224;27.910;2022-12-07T06:26:14;100603.47;;;10.04;100.00
11523;BME280;40093;43.224;27.910;2022-12-07T06:28:41;100607.13;;;10.11;100.00
11523;BME280;40093;43.224;27.910;2022-12-07T06:31:09;100597.69;;;10.12;100.00
11523;BME280;40093;43.224;27.910;2022-12-07T06:33:36;100601.28;;;10.16;100.00
11523;BME280;40093;43.224;27.910;2022-12-07T06:36:04;100601.44;;;10.01;100.00
11523;BME280;40093;43.224;27.910;2022-12-07T06:38:31;100603.53;;;10.07;100.00
11523;BME280;40093;43.224;27.910;2022-12-07T06:40:58;100597.91;;;10.26;100.00
11523;BME280;40093;43.224;27.910;2022-12-07T06:43:28;100603.38;;;10.52;100.00
11523;BME280;40093;43.224;27.910;2022-12-07T06:45:57;100614.25;;;10.71;100.00
11523;BME280;40093;43.224;27.910;2022-12-07T06:48:24;100604.03;;;10.72;100.00
11523;BME280;40093;43.224;27.910;2022-12-07T06:50:51;100605.81;;;10.90;100.00
11523;BME280;40093;43.224;27.910;2022-12-07T06:53:18;100603.25;;;11.04;100.00
11523;BME280;40093;43.224;27.910;2022-12-07T06:55:45;100608.91;;;11.18;100.00
11523;BME280;40093;43.224;27.910;2022-12-07T06:58:12;100608.72;;;11.37;100.00
11523;BME280;40093;43.224;27.910;2022-12-07T07:00:40;100609.59;;;11.45;100.00
11523;BME280;40093;43.224;27.910;2022-12-07T07:03:07;100612.47;;;11.55;100.00
11523;BME280;40093;43.224;27.910;2022-12-07T07:05:35;100610.19;;;11.61;100.00
11523;BME280;40093;43.224;27.910;2022-12-07T07:08:02;100614.13;;;11.63;100.00
11523;BME280;40093;43.224;27.910;2022-12-07T07:10:29;100609.91;;;11.76;100.00
11523;BME280;40093;43.224;27.910;2022-12-07T07:12:57;100603.97;;;11.74;100.00
11523;BME280;40093;43.224;27.910;2022-12-07T07:15:24;100605.34;;;11.94;100.00
11523;BME280;40093;43.224;27.910;2022-12-07T07:17:52;100612.25;;;12.21;100.00
11523;BME280;40093;43.224;27.910;2022-12-07T07:20:19;100619.47;;;12.43;100.00
11523;BME280;40093;43.224;27.910;2022-12-07T07:22:46;100616.84;;;12.64;100.00
11523;BME280;40093;43.224;27.910;2022-12-07T07:25:13;100609.78;;;12.73;100.00
11523;BME280;40093;43.224;27.910;2022-12-07T07:27:44;100617.03;;;12.99;100.00
11523;BME280;40093;43.224;27.910;2022-12-07T07:30:12;100614.66;;;13.01;100.00
11523;BME280;40093;43.224;27.910;2022-12-07T07:32:39;100622.22;;;13.14;100.00
11523;BME280;40093;43.224;27.910;2022-12-07T07:35:08;100625.03;;;13.39;100.00
11523;BME280;40093;43.224;27.910;2022-12-07T07:37:35;100623.88;;;13.47;100.00
11523;BME280;40093;43.224;27.910;2022-12-07T07:40:06;100622.28;;;13.46;100.00
11523;BME280;40093;43.224;27.910;2022-12-07T07:42:33;100627.84;;;13.67;100.00
11523;BME280;40093;43.224;27.910;2022-12-07T07:45:00;100629.84;;;13.84;100.00
11523;BME280;40093;43.224;27.910;2022-12-07T07:47:28;100632.22;;;14.03;100.00
11523;BME280;40093;43.224;27.910;2022-12-07T07:49:55;100631.44;;;14.20;100.00
11523;BME280;40093;43.224;27.910;2022-12-07T07:52:24;100631.84;;;14.29;100.00
11523;BME280;40093;43.224;27.910;2022-12-07T07:54:50;100626.31;;;14.29;100.00
11523;BME280;40093;43.224;27.910;2022-12-07T07:57:18;100623.16;;;14.27;100.00
11523;BME280;40093;43.224;27.910;2022-12-07T07:59:45;100631.84;;;14.43;100.00
11523;BME280;40093;43.224;27.910;2022-12-07T08:02:16;100630.22;;;14.49;100.00
11523;BME280;40093;43.224;27.910;2022-12-07T08:04:43;100636.53;;;14.53;100.00
11523;BME280;40093;43.224;27.910;2022-12-07T08:07:11;100638.91;;;14.61;100.00
11523;BME280;40093;43.224;27.910;2022-12-07T08:09:40;100641.25;;;14.63;100.00
11523;BME280;40093;43.224;27.910;2022-12-07T08:12:07;100634.16;;;14.65;100.00
11523;BME280;40093;43.224;27.910;2022-12-07T08:14:35;100646.00;;;14.73;100.00
11523;BME280;40093;43.224;27.910;2022-12-07T08:17:02;100630.97;;;14.67;100.00
11523;BME280;40093;43.224;27.910;2022-12-07T08:19:29;100631.78;;;14.57;100.00
11523;BME280;40093;43.224;27.910;2022-12-07T08:21:58;100635.38;;;14.43;100.00
11523;BME280;40093;43.224;27.910;2022-12-07T08:24:25;100641.34;;;14.28;100.00
11523;BME280;40093;43.224;27.910;2022-12-07T08:26:54;100644.50;;;14.23;100.00
11523;BME280;40093;43.224;27.910;2022-12-07T08:29:21;100631.84;;;14.43;100.00
11523;BME280;40093;43.224;27.910;2022-12-07T08:31:48;100630.22;;;14.49;100.00
11523;BME280;40093;43.224;27.910;2022-12-07T08:34:15;100626.69;;;14.41;100.00
11523;BME280;40093;43.224;27.910;2022-12-07T08:36:42;100630.22;;;14.49;100.00
11523;BME280;40093;43.224;27.910;2022-12-07T08:39:09;100621.97;;;14.28;100.00
11523;BME280;40093;43.224;27.910;2022-12-07T08:41:38;100616.84;;;14.19;100.00
11523;BME280;40093;43.224;27.910;2022-12-07T08:44:06;100625.09;;;14.30;100.00
11523;BME280;40093;43.224;27.910;2022-12-07T08:46:36;100625.09;;;14.09;100.00
11523;BME280;40093;43.224;27.910;2022-12-07T08:49:07;100622.31;;;14.47;100.00
11523;BME280;40093;43.224;27.910;2022-12-07T08:51:36;100598.66;;;14.22;100.00
11523;BME280;40093;43.224;27.910;2022-12-07T08:54:05;100616.00;;;14.40;100.00
11523;BME280;40093;43.224;27.910;2022-12-07T08:56:34;100598.63;;;14.15;100.00
11523;BME280;40093;43.224;27.910;2022-12-07T08:59:01;100603.75;;;14.13;100.00
11523;BME280;40093;43.224;27.910;2022-12-07T09:01:30;100606.97;;;14.22;100.00
11523;BME280;40093;43.224;27.910;2022-12-07T09:03:58;100604.56;;;14.24;100.00
11523;BME280;40093;43.224;27.910;2022-12-07T09:06:25;100604.91;;;14.40;100.00
11523;BME280;40093;43.224;27.910;2022-12-07T09:08:54;100599.31;;;14.68;100.00
11523;BME280;40093;43.224;27.910;2022-12-07T09:11:24;100600.44;;;14.88;100.00
11523;BME280;40093;43.224;27.910;2022-12-07T09:13:51;100592.88;;;14.92;100.00
11523;BME280;40093;43.224;27.910;2022-12-07T09:16:18;100590.13;;;14.92;100.00
11523;BME280;40093;43.224;27.910;2022-12-07T09:18:46;100588.94;;;14.89;100.00
11523;BME280;40093;43.224;27.910;2022-12-07T09:21:14;100582.63;;;14.85;100.00
11523;BME280;40093;43.224;27.910;2022-12-07T09:23:41;100577.53;;;14.80;100.00
11523;BME280;40093;43.224;27.910;2022-12-07T09:26:09;100571.59;;;14.75;100.00
11523;BME280;40093;43.224;27.910;2022-12-07T09:28:36;100568.41;;;14.73;100.00
11523;BME280;40093;43.224;27.910;2022-12-07T09:31:04;100571.59;;;14.75;100.00
11523;BME280;40093;43.224;27.910;2022-12-07T09:33:31;100573.13;;;14.86;100.00
11523;BME280;40093;43.224;27.910;2022-12-07T09:35:59;100566.00;;;14.85;100.00
11523;BME280;40093;43.224;27.910;2022-12-07T09:38:27;100561.59;;;14.94;100.00
11523;BME280;40093;43.224;27.910;2022-12-07T09:40:55;100565.28;;;14.71;100.00
11523;BME280;40093;43.224;27.910;2022-12-07T09:43:24;100562.94;;;14.55;100.00
11523;BME280;40093;43.224;27.910;2022-12-07T09:45:53;100560.53;;;14.68;100.00
11523;BME280;40093;43.224;27.910;2022-12-07T09:48:23;100552.69;;;14.56;100.00
11523;BME280;40093;43.224;27.910;2022-12-07T09:50:52;100551.13;;;14.51;100.00
11523;BME280;40093;43.224;27.910;2022-12-07T09:53:25;100555.09;;;14.40;100.00
11523;BME280;40093;43.224;27.910;2022-12-07T09:55:54;100551.97;;;14.24;100.00
11523;BME280;40093;43.224;27.910;2022-12-07T09:58:23;100542.47;;;14.28;100.00
11523;BME280;40093;43.224;27.910;2022-12-07T10:00:54;100551.16;;;14.34;100.00
11523;BME280;40093;43.224;27.910;2022-12-07T10:03:22;100549.59;;;14.33;100.00
11523;BME280;40093;43.224;27.910;2022-12-07T10:05:50;100547.22;;;14.35;100.00
11523;BME280;40093;43.224;27.910;2022-12-07T10:08:26;100541.69;;;14.28;100.00
11523;BME280;40093;43.224;27.910;2022-12-07T10:10:55;100535.38;;;14.20;100.00
11523;BME280;40093;43.224;27.910;2022-12-07T10:13:35;100538.13;;;14.10;100.00
11523;BME280;40093;43.224;27.910;2022-12-07T10:16:03;100540.16;;;13.95;100.00
11523;BME280;40093;43.224;27.910;2022-12-07T10:18:35;100527.88;;;13.93;100.00
11523;BME280;40093;43.224;27.910;2022-12-07T10:21:10;100529.84;;;13.99;100.00
11523;BME280;40093;43.224;27.910;2022-12-07T10:23:42;100514.03;;;14.03;100.00
11523;BME280;40093;43.224;27.910;2022-12-07T10:26:28;100519.88;;;14.44;100.00
11523;BME280;40093;43.224;27.910;2022-12-07T10:28:56;100516.78;;;14.28;100.00
11523;BME280;40093;43.224;27.910;2022-12-07T10:31:25;100511.59;;;14.37;100.00
11523;BME280;40093;43.224;27.910;2022-12-07T10:33:54;100512.00;;;14.32;100.00
11523;BME280;40093;43.224;27.910;2022-12-07T10:36:25;100515.56;;;14.43;100.00
11523;BME280;40093;43.224;27.910;2022-12-07T10:39:00;100508.38;;;14.49;100.00
11523;BME280;40093;43.224;27.910;2022-12-07T10:41:28;100503.59;;;14.60;100.00
11523;BME280;40093;43.224;27.910;2022-12-07T10:43:56;100500.06;;;14.59;100.00
11523;BME280;40093;43.224;27.910;2022-12-07T10:46:48;100503.19;;;14.61;100.00
11523;BME280;40093;43.224;27.910;2022-12-07T10:49:45;100506.03;;;14.44;100.00
11523;BME280;40093;43.224;27.910;2022-12-07T10:52:46;100499.34;;;14.31;100.00
11523;BME280;40093;43.224;27.910;2022-12-07T10:55:23;100498.97;;;14.25;100.00
11523;BME280;40093;43.224;27.910;2022-12-07T10:58:02;100488.69;;;14.29;100.00
11523;BME280;40093;43.224;27.910;2022-12-07T11:00:39;100495.38;;;14.32;100.00
11523;BME280;40093;43.224;27.910;2022-12-07T11:03:28;100483.16;;;14.33;100.00
11523;BME280;40093;43.224;27.910;2022-12-07T11:06:07;100494.97;;;14.44;100.00
11523;BME280;40093;43.224;27.910;2022-12-07T11:08:46;100485.41;;;14.52;100.00
11523;BME280;40093;43.224;27.910;2022-12-07T11:11:24;100467.97;;;14.62;100.00
11523;BME280;40093;43.224;27.910;2022-12-07T11:14:00;100478.56;;;14.77;100.00
11523;BME280;40093;43.224;27.910;2022-12-07T11:16:41;100482.06;;;14.88;100.00
11523;BME280;40093;43.224;27.910;2022-12-07T11:19:24;100443.78;;;14.73;100.00
11523;BME280;40093;43.224;27.910;2022-12-07T11:21:58;100467.81;;;14.90;100.00
11523;BME280;40093;43.224;27.910;2022-12-07T11:24:31;100462.06;;;14.60;100.00
11523;BME280;40093;43.224;27.910;2022-12-07T11:27:19;100457.63;;;14.73;100.00
11523;BME280;40093;43.224;27.910;2022-12-07T11:30:12;100463.50;;;14.82;100.00
11523;BME280;40093;43.224;27.910;2022-12-07T11:32:58;100463.94;;;14.77;100.00
11523;BME280;40093;43.224;27.910;2022-12-07T11:35:36;100459.63;;;14.69;100.00
11523;BME280;40093;43.224;27.910;2022-12-07T11:38:11;100453.78;;;14.53;100.00
11523;BME280;40093;43.224;27.910;2022-12-07T11:40:40;100448.66;;;14.48;100.00
11523;BME280;40093;43.224;27.910;2022-12-07T11:43:18;100450.97;;;14.60;100.00
11523;BME280;40093;43.224;27.910;2022-12-07T11:45:52;100441.00;;;14.73;100.00
11523;BME280;40093;43.224;27.910;2022-12-07T11:48:24;100440.22;;;14.76;100.00
11523;BME280;40093;43.224;27.910;2022-12-07T11:50:58;100443.38;;;14.78;100.00
11523;BME280;40093;43.224;27.910;2022-12-07T11:53:28;100446.50;;;14.83;100.00
11523;BME280;40093;43.224;27.910;2022-12-07T11:55:57;100439.34;;;14.86;100.00
11523;BME280;40093;43.224;27.910;2022-12-07T11:58:48;100442.13;;;14.86;100.00
11523;BME280;40093;43.224;27.910;2022-12-07T12:01:26;100441.34;;;14.82;100.00
11523;BME280;40093;43.224;27.910;2022-12-07T12:04:00;100437.47;;;14.72;100.00
11523;BME280;40093;43.224;27.910;2022-12-07T12:06:30;100435.91;;;14.68;100.00
11523;BME280;40093;43.224;27.910;2022-12-07T12:09:01;100437.88;;;14.64;100.00
11523;BME280;40093;43.224;27.910;2022-12-07T12:11:42;100436.31;;;14.63;100.00
11523;BME280;40093;43.224;27.910;2022-12-07T12:14:29;100431.59;;;14.60;100.00
11523;BME280;40093;43.224;27.910;2022-12-07T12:17:27;100436.72;;;14.65;100.00
11523;BME280;40093;43.224;27.910;2022-12-07T12:20:02;100429.19;;;14.62;100.00
11523;BME280;40093;43.224;27.910;2022-12-07T12:22:35;100424.03;;;14.64;100.00
11523;BME280;40093;43.224;27.910;2022-12-07T12:25:06;100422.44;;;14.66;100.00
11523;BME280;40093;43.224;27.910;2022-12-07T12:27:36;100415.69;;;14.71;100.00
11523;BME280;40093;43.224;27.910;2022-12-07T12:30:07;100415.66;;;14.78;100.00
11523;BME280;40093;43.224;27.910;2022-12-07T12:32:39;100394.47;;;14.47;100.00
11523;BME280;40093;43.224;27.910;2022-12-07T12:35:29;100413.06;;;14.50;100.00
11523;BME280;40093;43.224;27.910;2022-12-07T12:38:29;100418.22;;;14.48;100.00
11523;BME280;40093;43.224;27.910;2022-12-07T12:40:57;100405.56;;;14.43;100.00
11523;BME280;40093;43.224;27.910;2022-12-07T12:43:47;100411.50;;;14.42;100.00
11523;BME280;40093;43.224;27.910;2022-12-07T12:46:52;100380.81;;;14.12;100.00
11523;BME280;40093;43.224;27.910;2022-12-07T12:49:43;100404.13;;;14.18;100.00
11523;BME280;40093;43.224;27.910;2022-12-07T12:55:21;100405.75;;;13.98;100.00